sensor_id;sensor_type;location;lat;lon;timestamp;pressure;altitude;pressure_sealevel;temperature;humidity
9225;BME280;4647;48.072;11.616;2023-07-13T00:01:13;95248.13;;;18.85;85.18
9225;BME280;4647;48.072;11.616;2023-07-13T00:03:41;95242.63;;;18.85;85.55
9225;BME280;4647;48.072;11.616;2023-07-13T00:06:09;95238.22;;;18.88;85.40
9225;BME280;4647;48.072;11.616;2023-07-13T00:08:38;95227.75;;;18.77;85.19
9225;BME280;4647;48.072;11.616;2023-07-13T00:11:09;95231.88;;;18.73;85.94
9225;BME280;4647;48.072;11.616;2023-07-13T00:13:37;95237.38;;;18.63;86.69
9225;BME280;4647;48.072;11.616;2023-07-13T00:16:06;95226.09;;;18.61;87.03
9225;BME280;4647;48.072;11.616;2023-07-13T00:18:35;95230.09;;;18.51;87.69
9225;BME280;4647;48.072;11.616;2023-07-13T00:21:04;95241.84;;;18.42;88.15
9225;BME280;4647;48.072;11.616;2023-07-13T00:23:33;95248.84;;;18.44;88.43
9225;BME280;4647;48.072;11.616;2023-07-13T00:26:02;95248.38;;;18.45;88.35
9225;BME280;4647;48.072;11.616;2023-07-13T00:28:34;95241.72;;;18.37;88.50
9225;BME280;4647;48.072;11.616;2023-07-13T00:31:03;95236.81;;;18.41;87.88
9225;BME280;4647;48.072;11.616;2023-07-13T00:33:31;95244.59;;;18.42;88.04
9225;BME280;4647;48.072;11.616;2023-07-13T00:35:59;95259.09;;;18.34;88.29
9225;BME280;4647;48.072;11.616;2023-07-13T00:38:28;95249.22;;;18.27;89.04
9225;BME280;4647;48.072;11.616;2023-07-13T00:40:56;95244.78;;;18.30;88.56
9225;BME280;4647;48.072;11.616;2023-07-13T00:43:28;95252.09;;;18.33;88.11
9225;BME280;4647;48.072;11.616;2023-07-13T00:46:20;95249.66;;;18.35;88.58
9225;BME280;4647;48.072;11.616;2023-07-13T00:48:50;95251.31;;;18.41;88.70
9225;BME280;4647;48.072;11.616;2023-07-13T00:51:22;95247.38;;;18.33;88.15
9225;BME280;4647;48.072;11.616;2023-07-13T00:53:53;95257.41;;;18.36;88.32
9225;BME280;4647;48.072;11.616;2023-07-13T00:56:25;95253.78;;;18.30;88.71
9225;BME280;4647;48.072;11.616;2023-07-13T00:58:55;95258.94;;;18.37;88.87
9225;BME280;4647;48.072;11.616;2023-07-13T01:01:27;95256.78;;;18.41;88.54
9225;BME280;4647;48.072;11.616;2023-07-13T01:03:56;95239.91;;;18.34;88.42
9225;BME280;4647;48.072;11.616;2023-07-13T01:06:25;95235.97;;;18.26;89.44
9225;BME280;4647;48.072;11.616;2023-07-13T01:08:53;95228.66;;;18.14;89.40
9225;BME280;4647;48.072;11.616;2023-07-13T01:11:23;95225.16;;;18.13;89.93
9225;BME280;4647;48.072;11.616;2023-07-13T01:13:51;95227.00;;;18.07;89.85
9225;BME280;4647;48.072;11.616;2023-07-13T01:16:24;95211.19;;;18.02;90.81
9225;BME280;4647;48.072;11.616;2023-07-13T01:18:55;95213.00;;;18.05;90.54
9225;BME280;4647;48.072;11.616;2023-07-13T01:21:31;95214.97;;;17.95;90.87
9225;BME280;4647;48.072;11.616;2023-07-13T01:24:00;95217.41;;;17.93;90.96
9225;BME280;4647;48.072;11.616;2023-07-13T01:26:28;95203.41;;;17.91;91.07
9225;BME280;4647;48.072;11.616;2023-07-13T01:28:57;95189.28;;;17.84;91.12
9225;BME280;4647;48.072;11.616;2023-07-13T01:31:25;95180.28;;;17.83;90.46
9225;BME280;4647;48.072;11.616;2023-07-13T01:33:54;95185.78;;;17.83;90.96
9225;BME280;4647;48.072;11.616;2023-07-13T01:36:23;95191.69;;;17.91;90.68
9225;BME280;4647;48.072;11.616;2023-07-13T01:38:54;95183.34;;;17.85;90.75
9225;BME280;4647;48.072;11.616;2023-07-13T01:41:22;95185.34;;;17.75;90.79
9225;BME280;4647;48.072;11.616;2023-07-13T01:43:51;95179.84;;;17.85;90.74
9225;BME280;4647;48.072;11.616;2023-07-13T01:46:19;95187.47;;;17.81;90.57
9225;BME280;4647;48.072;11.616;2023-07-13T01:48:48;95208.47;;;17.84;90.57
9225;BME280;4647;48.072;11.616;2023-07-13T01:51:17;95208.47;;;17.84;90.80
9225;BME280;4647;48.072;11.616;2023-07-13T01:53:46;95213.03;;;17.77;90.56
9225;BME280;4647;48.072;11.616;2023-07-13T01:56:18;95211.81;;;17.78;91.32
9225;BME280;4647;48.072;11.616;2023-07-13T01:58:46;95212.59;;;17.79;90.92
9225;BME280;4647;48.072;11.616;2023-07-13T02:01:15;95222.94;;;17.75;90.97
9225;BME280;4647;48.072;11.616;2023-07-13T02:03:43;95235.88;;;17.84;91.31
9225;BME280;4647;48.072;11.616;2023-07-13T02:06:12;95239.66;;;17.86;91.03
9225;BME280;4647;48.072;11.616;2023-07-13T02:08:41;95239.22;;;17.88;90.67
9225;BME280;4647;48.072;11.616;2023-07-13T02:11:09;95244.41;;;17.86;90.80
9225;BME280;4647;48.072;11.616;2023-07-13T02:13:40;95242.84;;;17.94;90.24
9225;BME280;4647;48.072;11.616;2023-07-13T02:16:09;95238.31;;;18.00;90.01
9225;BME280;4647;48.072;11.616;2023-07-13T02:18:37;95234.03;;;17.99;89.29
9225;BME280;4647;48.072;11.616;2023-07-13T02:21:06;95244.53;;;17.91;89.61
9225;BME280;4647;48.072;11.616;2023-07-13T02:23:34;95248.63;;;17.96;89.35
9225;BME280;4647;48.072;11.616;2023-07-13T02:26:03;95229.16;;;17.85;89.98
9225;BME280;4647;48.072;11.616;2023-07-13T02:28:32;95243.00;;;17.90;89.68
9225;BME280;4647;48.072;11.616;2023-07-13T02:31:11;95242.13;;;17.84;89.82
9225;BME280;4647;48.072;11.616;2023-07-13T02:33:40;95244.09;;;17.74;90.98
9225;BME280;4647;48.072;11.616;2023-07-13T02:36:09;95251.88;;;17.76;90.79
9225;BME280;4647;48.072;11.616;2023-07-13T02:38:37;95257.94;;;17.80;90.08
9225;BME280;4647;48.072;11.616;2023-07-13T02:41:07;95261.13;;;17.88;90.18
9225;BME280;4647;48.072;11.616;2023-07-13T02:43:37;95268.28;;;17.85;90.62
9225;BME280;4647;48.072;11.616;2023-07-13T02:46:05;95266.94;;;17.90;89.66
9225;BME280;4647;48.072;11.616;2023-07-13T02:48:38;95273.03;;;17.75;91.40
9225;BME280;4647;48.072;11.616;2023-07-13T02:51:07;95278.63;;;17.72;91.74
9225;BME280;4647;48.072;11.616;2023-07-13T02:53:36;95278.06;;;17.77;91.26
9225;BME280;4647;48.072;11.616;2023-07-13T02:56:05;95287.66;;;17.82;90.87
9225;BME280;4647;48.072;11.616;2023-07-13T02:58:33;95282.63;;;17.80;90.69
9225;BME280;4647;48.072;11.616;2023-07-13T03:01:06;95291.59;;;17.81;90.98
9225;BME280;4647;48.072;11.616;2023-07-13T03:03:38;95285.63;;;17.73;91.27
9225;BME280;4647;48.072;11.616;2023-07-13T03:06:06;95285.78;;;17.60;91.54
9225;BME280;4647;48.072;11.616;2023-07-13T03:08:35;95290.16;;;17.39;91.65
9225;BME280;4647;48.072;11.616;2023-07-13T03:11:05;95294.81;;;17.21;92.54
9225;BME280;4647;48.072;11.616;2023-07-13T03:13:34;95303.28;;;17.04;93.24
9225;BME280;4647;48.072;11.616;2023-07-13T03:16:03;95298.13;;;17.06;94.84
9225;BME280;4647;48.072;11.616;2023-07-13T03:18:32;95291.13;;;17.05;94.46
9225;BME280;4647;48.072;11.616;2023-07-13T03:21:04;95296.00;;;17.10;95.02
9225;BME280;4647;48.072;11.616;2023-07-13T03:23:33;95298.75;;;17.19;94.97
9225;BME280;4647;48.072;11.616;2023-07-13T03:26:03;95304.53;;;17.12;94.49
9225;BME280;4647;48.072;11.616;2023-07-13T03:28:33;95298.09;;;16.97;95.23
9225;BME280;4647;48.072;11.616;2023-07-13T03:31:03;95314.72;;;17.12;95.20
9225;BME280;4647;48.072;11.616;2023-07-13T03:33:32;95320.81;;;17.16;95.68
9225;BME280;4647;48.072;11.616;2023-07-13T03:36:04;95322.19;;;17.21;95.75
9225;BME280;4647;48.072;11.616;2023-07-13T03:38:34;95324.66;;;17.28;95.07
9225;BME280;4647;48.072;11.616;2023-07-13T03:41:02;95320.97;;;17.12;95.07
9225;BME280;4647;48.072;11.616;2023-07-13T03:43:30;95322.56;;;17.01;95.10
9225;BME280;4647;48.072;11.616;2023-07-13T03:45:59;95332.75;;;17.00;95.17
9225;BME280;4647;48.072;11.616;2023-07-13T03:48:27;95324.38;;;16.95;94.69
9225;BME280;4647;48.072;11.616;2023-07-13T03:50:58;95326.84;;;17.02;94.30
9225;BME280;4647;48.072;11.616;2023-07-13T03:53:29;95320.59;;;17.01;93.68
9225;BME280;4647;48.072;11.616;2023-07-13T03:55:57;95317.38;;;16.94;93.69
9225;BME280;4647;48.072;11.616;2023-07-13T03:58:29;95332.75;;;17.00;93.00
9225;BME280;4647;48.072;11.616;2023-07-13T04:00:59;95334.56;;;16.94;92.96
9225;BME280;4647;48.072;11.616;2023-07-13T04:03:28;95328.91;;;16.88;93.15
9225;BME280;4647;48.072;11.616;2023-07-13T04:05:58;95326.94;;;16.89;92.56
9225;BME280;4647;48.072;11.616;2023-07-13T04:08:31;95309.28;;;16.81;92.42
9225;BME280;4647;48.072;11.616;2023-07-13T04:11:02;95323.53;;;16.76;93.11
9225;BME280;4647;48.072;11.616;2023-07-13T04:13:31;95340.31;;;16.87;93.45
9225;BME280;4647;48.072;11.616;2023-07-13T04:16:00;95334.78;;;16.78;92.87
9225;BME280;4647;48.072;11.616;2023-07-13T04:18:28;95335.69;;;16.75;92.77
9225;BME280;4647;48.072;11.616;2023-07-13T04:20:56;95331.88;;;16.72;91.18
9225;BME280;4647;48.072;11.616;2023-07-13T04:23:25;95333.97;;;16.68;91.04
9225;BME280;4647;48.072;11.616;2023-07-13T04:25:56;95334.16;;;16.74;90.28
9225;BME280;4647;48.072;11.616;2023-07-13T04:28:26;95339.00;;;16.70;90.43
9225;BME280;4647;48.072;11.616;2023-07-13T04:30:54;95323.81;;;16.69;90.28
9225;BME280;4647;48.072;11.616;2023-07-13T04:33:23;95328.19;;;16.66;91.29
9225;BME280;4647;48.072;11.616;2023-07-13T04:35:53;95319.03;;;16.82;90.37
9225;BME280;4647;48.072;11.616;2023-07-13T04:38:24;95336.22;;;16.92;90.88
9225;BME280;4647;48.072;11.616;2023-07-13T04:40:59;95349.47;;;16.93;90.52
9225;BME280;4647;48.072;11.616;2023-07-13T04:43:28;95343.81;;;16.87;90.08
9225;BME280;4647;48.072;11.616;2023-07-13T04:45:57;95339.69;;;16.83;90.44
9225;BME280;4647;48.072;11.616;2023-07-13T04:48:31;95348.38;;;16.91;90.21
9225;BME280;4647;48.072;11.616;2023-07-13T04:51:00;95342.78;;;16.94;89.87
9225;BME280;4647;48.072;11.616;2023-07-13T04:53:29;95349.38;;;17.06;89.12
9225;BME280;4647;48.072;11.616;2023-07-13T04:56:01;95337.03;;;17.01;88.92
9225;BME280;4647;48.072;11.616;2023-07-13T04:58:29;95346.66;;;17.15;88.06
9225;BME280;4647;48.072;11.616;2023-07-13T05:01:02;95354.88;;;17.15;87.92
9225;BME280;4647;48.072;11.616;2023-07-13T05:03:32;95355.97;;;17.17;88.36
9225;BME280;4647;48.072;11.616;2023-07-13T05:06:03;95368.88;;;17.17;88.17
9225;BME280;4647;48.072;11.616;2023-07-13T05:08:32;95364.00;;;17.12;87.91
9225;BME280;4647;48.072;11.616;2023-07-13T05:11:04;95351.66;;;17.07;87.78
9225;BME280;4647;48.072;11.616;2023-07-13T05:13:33;95358.38;;;17.15;87.34
9225;BME280;4647;48.072;11.616;2023-07-13T05:16:02;95363.31;;;17.30;87.45
9225;BME280;4647;48.072;11.616;2023-07-13T05:18:31;95361.50;;;17.36;87.06
9225;BME280;4647;48.072;11.616;2023-07-13T05:21:02;95360.28;;;17.28;87.13
9225;BME280;4647;48.072;11.616;2023-07-13T05:23:32;95366.38;;;17.32;87.97
9225;BME280;4647;48.072;11.616;2023-07-13T05:26:04;95365.31;;;17.38;87.12
9225;BME280;4647;48.072;11.616;2023-07-13T05:28:32;95364.53;;;17.29;88.23
9225;BME280;4647;48.072;11.616;2023-07-13T05:31:01;95363.72;;;17.19;87.99
9225;BME280;4647;48.072;11.616;2023-07-13T05:33:29;95369.56;;;17.30;88.15
9225;BME280;4647;48.072;11.616;2023-07-13T05:35:58;95377.31;;;17.32;87.84
9225;BME280;4647;48.072;11.616;2023-07-13T05:38:27;95378.84;;;17.33;88.26
9225;BME280;4647;48.072;11.616;2023-07-13T05:40:57;95350.66;;;17.23;87.70
9225;BME280;4647;48.072;11.616;2023-07-13T05:43:28;95375.66;;;17.43;87.53
9225;BME280;4647;48.072;11.616;2023-07-13T05:45:57;95375.53;;;17.47;87.13
9225;BME280;4647;48.072;11.616;2023-07-13T05:48:25;95372.06;;;17.56;87.29
9225;BME280;4647;48.072;11.616;2023-07-13T05:50:54;95382.97;;;17.77;86.52
9225;BME280;4647;48.072;11.616;2023-07-13T05:53:22;95379.34;;;17.99;86.12
9225;BME280;4647;48.072;11.616;2023-07-13T05:55:52;95386.94;;;18.13;85.14
9225;BME280;4647;48.072;11.616;2023-07-13T05:58:22;95382.38;;;18.28;84.42
9225;BME280;4647;48.072;11.616;2023-07-13T06:00:59;95385.28;;;18.52;83.45
9225;BME280;4647;48.072;11.616;2023-07-13T06:03:28;95384.00;;;18.90;82.24
9225;BME280;4647;48.072;11.616;2023-07-13T06:05:57;95389.50;;;18.99;81.16
9225;BME280;4647;48.072;11.616;2023-07-13T06:08:25;95381.56;;;18.92;81.46
9225;BME280;4647;48.072;11.616;2023-07-13T06:10:54;95388.44;;;18.96;80.76
9225;BME280;4647;48.072;11.616;2023-07-13T06:13:22;95385.53;;;19.00;80.40
9225;BME280;4647;48.072;11.616;2023-07-13T06:15:54;95390.56;;;18.92;80.33
9225;BME280;4647;48.072;11.616;2023-07-13T06:18:22;95400.59;;;19.05;80.53
9225;BME280;4647;48.072;11.616;2023-07-13T06:20:51;95409.56;;;19.14;79.15
9225;BME280;4647;48.072;11.616;2023-07-13T06:23:19;95413.69;;;19.19;78.95
9225;BME280;4647;48.072;11.616;2023-07-13T06:25:48;95402.53;;;19.22;78.95
9225;BME280;4647;48.072;11.616;2023-07-13T06:28:16;95417.66;;;19.69;77.79
9225;BME280;4647;48.072;11.616;2023-07-13T06:30:44;95414.91;;;19.69;77.12
9225;BME280;4647;48.072;11.616;2023-07-13T06:33:15;95429.75;;;19.86;76.81
9225;BME280;4647;48.072;11.616;2023-07-13T06:35:44;95429.00;;;19.86;76.51
9225;BME280;4647;48.072;11.616;2023-07-13T06:38:12;95433.03;;;19.76;77.12
9225;BME280;4647;48.072;11.616;2023-07-13T06:40:41;95432.38;;;19.81;76.36
9225;BME280;4647;48.072;11.616;2023-07-13T06:43:10;95440.63;;;19.81;76.58
9225;BME280;4647;48.072;11.616;2023-07-13T06:45:41;95425.69;;;20.06;75.75
9225;BME280;4647;48.072;11.616;2023-07-13T06:48:11;95436.22;;;20.07;75.25
9225;BME280;4647;48.072;11.616;2023-07-13T06:50:42;95437.09;;;20.13;74.47
9225;BME280;4647;48.072;11.616;2023-07-13T06:53:12;95435.22;;;20.19;74.74
9225;BME280;4647;48.072;11.616;2023-07-13T06:55:43;95441.03;;;20.21;74.01
9225;BME280;4647;48.072;11.616;2023-07-13T06:58:12;95442.44;;;20.17;74.51
9225;BME280;4647;48.072;11.616;2023-07-13T07:00:40;95434.69;;;20.30;73.77
9225;BME280;4647;48.072;11.616;2023-07-13T07:03:09;95441.13;;;20.27;73.73
9225;BME280;4647;48.072;11.616;2023-07-13T07:05:38;95435.72;;;20.42;73.96
9225;BME280;4647;48.072;11.616;2023-07-13T07:08:09;95444.13;;;20.38;73.59
9225;BME280;4647;48.072;11.616;2023-07-13T07:10:37;95443.22;;;20.41;73.25
9225;BME280;4647;48.072;11.616;2023-07-13T07:13:05;95432.16;;;20.65;71.92
9225;BME280;4647;48.072;11.616;2023-07-13T07:15:34;95444.41;;;20.64;71.60
9225;BME280;4647;48.072;11.616;2023-07-13T07:18:03;95436.56;;;21.01;70.30
9225;BME280;4647;48.072;11.616;2023-07-13T07:20:31;95430.22;;;21.39;68.91
9225;BME280;4647;48.072;11.616;2023-07-13T07:22:59;95430.22;;;21.39;69.29
9225;BME280;4647;48.072;11.616;2023-07-13T07:25:30;95428.50;;;21.12;71.04
9225;BME280;4647;48.072;11.616;2023-07-13T07:28:03;95441.22;;;20.95;70.39
9225;BME280;4647;48.072;11.616;2023-07-13T07:30:31;95422.25;;;20.44;71.07
9225;BME280;4647;48.072;11.616;2023-07-13T07:33:00;95447.13;;;20.49;72.30
9225;BME280;4647;48.072;11.616;2023-07-13T07:35:29;95454.78;;;20.21;72.88
9225;BME280;4647;48.072;11.616;2023-07-13T07:37:57;95466.53;;;20.22;72.72
9225;BME280;4647;48.072;11.616;2023-07-13T07:40:26;95450.22;;;19.85;71.86
9225;BME280;4647;48.072;11.616;2023-07-13T07:42:57;95459.63;;;20.03;70.90
9225;BME280;4647;48.072;11.616;2023-07-13T07:45:26;95447.38;;;19.80;71.11
9225;BME280;4647;48.072;11.616;2023-07-13T07:47:55;95476.84;;;19.79;69.02
9225;BME280;4647;48.072;11.616;2023-07-13T07:50:24;95475.75;;;19.86;70.14
9225;BME280;4647;48.072;11.616;2023-07-13T07:52:52;95481.25;;;20.19;71.45
9225;BME280;4647;48.072;11.616;2023-07-13T07:55:22;95486.91;;;20.15;71.02
9225;BME280;4647;48.072;11.616;2023-07-13T07:57:51;95496.72;;;20.07;68.59
9225;BME280;4647;48.072;11.616;2023-07-13T08:00:22;95484.84;;;20.01;67.07
9225;BME280;4647;48.072;11.616;2023-07-13T08:02:51;95497.75;;;19.86;67.55
9225;BME280;4647;48.072;11.616;2023-07-13T08:05:19;95503.41;;;19.82;67.15
9225;BME280;4647;48.072;11.616;2023-07-13T08:07:47;95509.06;;;19.27;69.27
9225;BME280;4647;48.072;11.616;2023-07-13T08:10:16;95502.97;;;19.14;70.55
9225;BME280;4647;48.072;11.616;2023-07-13T08:12:45;95515.03;;;19.17;70.81
9225;BME280;4647;48.072;11.616;2023-07-13T08:15:15;95501.91;;;19.02;71.47
9225;BME280;4647;48.072;11.616;2023-07-13T08:17:49;95505.72;;;19.23;70.92
9225;BME280;4647;48.072;11.616;2023-07-13T08:20:17;95511.38;;;19.20;71.17
9225;BME280;4647;48.072;11.616;2023-07-13T08:22:45;95516.09;;;19.19;70.62
9225;BME280;4647;48.072;11.616;2023-07-13T08:25:14;95523.44;;;18.95;73.51
9225;BME280;4647;48.072;11.616;2023-07-13T08:27:43;95503.59;;;18.82;73.35
9225;BME280;4647;48.072;11.616;2023-07-13T08:30:11;95510.94;;;18.94;73.91
9225;BME280;4647;48.072;11.616;2023-07-13T08:32:40;95518.84;;;19.01;73.69
9225;BME280;4647;48.072;11.616;2023-07-13T08:35:11;95520.22;;;18.78;74.96
9225;BME280;4647;48.072;11.616;2023-07-13T08:37:39;95512.59;;;18.82;75.17
9225;BME280;4647;48.072;11.616;2023-07-13T08:40:08;95523.88;;;18.84;74.83
9225;BME280;4647;48.072;11.616;2023-07-13T08:42:42;95527.09;;;18.74;74.48
9225;BME280;4647;48.072;11.616;2023-07-13T08:45:18;95521.97;;;18.45;75.86
9225;BME280;4647;48.072;11.616;2023-07-13T08:47:52;95520.16;;;18.41;76.85
9225;BME280;4647;48.072;11.616;2023-07-13T08:50:29;95535.13;;;18.59;77.30
9225;BME280;4647;48.072;11.616;2023-07-13T08:53:00;95546.41;;;18.61;76.67
9225;BME280;4647;48.072;11.616;2023-07-13T08:55:33;95544.31;;;18.65;77.13
9225;BME280;4647;48.072;11.616;2023-07-13T08:58:10;95533.94;;;18.69;74.81
9225;BME280;4647;48.072;11.616;2023-07-13T09:00:45;95545.69;;;18.88;75.92
9225;BME280;4647;48.072;11.616;2023-07-13T09:03:20;95549.50;;;19.09;74.68
9225;BME280;4647;48.072;11.616;2023-07-13T09:05:56;95548.75;;;19.17;74.20
9225;BME280;4647;48.072;11.616;2023-07-13T09:08:43;95536.38;;;19.31;73.39
9225;BME280;4647;48.072;11.616;2023-07-13T09:11:23;95534.50;;;19.46;72.34
9225;BME280;4647;48.072;11.616;2023-07-13T09:14:04;95537.25;;;19.65;70.47
9225;BME280;4647;48.072;11.616;2023-07-13T09:16:34;95520.41;;;19.72;70.43
9225;BME280;4647;48.072;11.616;2023-07-13T09:19:06;95530.84;;;19.58;71.42
9225;BME280;4647;48.072;11.616;2023-07-13T09:21:40;95533.28;;;19.66;70.84
9225;BME280;4647;48.072;11.616;2023-07-13T09:24:33;95531.50;;;19.86;70.47
9225;BME280;4647;48.072;11.616;2023-07-13T09:27:12;95533.88;;;20.12;69.97
9225;BME280;4647;48.072;11.616;2023-07-13T09:29:45;95536.22;;;20.28;69.21
9225;BME280;4647;48.072;11.616;2023-07-13T09:32:18;95541.06;;;20.42;69.15
9225;BME280;4647;48.072;11.616;2023-07-13T09:34:50;95536.97;;;20.29;68.22
9225;BME280;4647;48.072;11.616;2023-07-13T09:37:28;95541.38;;;20.35;68.59
9225;BME280;4647;48.072;11.616;2023-07-13T09:39:59;95534.31;;;20.43;68.35
9225;BME280;4647;48.072;11.616;2023-07-13T09:42:32;95538.97;;;20.61;67.21
9225;BME280;4647;48.072;11.616;2023-07-13T09:45:04;95541.53;;;20.32;67.13
9225;BME280;4647;48.072;11.616;2023-07-13T09:47:38;95543.97;;;20.39;67.62
9225;BME280;4647;48.072;11.616;2023-07-13T09:50:10;95538.53;;;20.20;66.99
9225;BME280;4647;48.072;11.616;2023-07-13T09:52:46;95542.28;;;20.32;67.18
9225;BME280;4647;48.072;11.616;2023-07-13T09:55:24;95541.53;;;20.41;66.52
9225;BME280;4647;48.072;11.616;2023-07-13T09:57:53;95540.22;;;20.51;65.18
9225;BME280;4647;48.072;11.616;2023-07-13T10:00:24;95534.69;;;20.99;63.13
9225;BME280;4647;48.072;11.616;2023-07-13T10:03:01;95532.44;;;21.12;62.03
9225;BME280;4647;48.072;11.616;2023-07-13T10:05:38;95542.28;;;21.42;60.75
9225;BME280;4647;48.072;11.616;2023-07-13T10:08:18;95545.22;;;21.24;62.04
9225;BME280;4647;48.072;11.616;2023-07-13T10:10:52;95552.66;;;21.33;61.63
9225;BME280;4647;48.072;11.616;2023-07-13T10:13:26;95553.22;;;21.52;60.80
9225;BME280;4647;48.072;11.616;2023-07-13T10:15:58;95556.56;;;21.85;60.16
9225;BME280;4647;48.072;11.616;2023-07-13T10:18:29;95556.72;;;22.26;59.81
9225;BME280;4647;48.072;11.616;2023-07-13T10:21:10;95547.91;;;22.42;57.57
9225;BME280;4647;48.072;11.616;2023-07-13T10:23:43;95557.50;;;22.47;57.68
9225;BME280;4647;48.072;11.616;2023-07-13T10:26:15;95553.53;;;22.48;57.42
9225;BME280;4647;48.072;11.616;2023-07-13T10:28:50;95491.25;;;21.62;58.16
9225;BME280;4647;48.072;11.616;2023-07-13T10:31:21;95553.59;;;22.53;56.24
9225;BME280;4647;48.072;11.616;2023-07-13T10:33:49;95556.25;;;22.83;54.13
9225;BME280;4647;48.072;11.616;2023-07-13T10:36:27;95558.69;;;22.95;53.73
9225;BME280;4647;48.072;11.616;2023-07-13T10:39:01;95566.03;;;22.63;55.52
9225;BME280;4647;48.072;11.616;2023-07-13T10:41:33;95563.91;;;22.93;52.16
9225;BME280;4647;48.072;11.616;2023-07-13T10:44:04;95532.47;;;22.71;53.60
9225;BME280;4647;48.072;11.616;2023-07-13T10:46:34;95552.03;;;23.08;52.63
9225;BME280;4647;48.072;11.616;2023-07-13T10:49:05;95562.94;;;23.17;53.70
9225;BME280;4647;48.072;11.616;2023-07-13T10:51:36;95567.16;;;22.92;52.67
9225;BME280;4647;48.072;11.616;2023-07-13T10:54:26;95568.00;;;22.98;51.39
9225;BME280;4647;48.072;11.616;2023-07-13T10:57:14;95569.31;;;24.01;51.12
9225;BME280;4647;48.072;11.616;2023-07-13T10:59:47;95565.84;;;24.37;49.69
9225;BME280;4647;48.072;11.616;2023-07-13T11:02:26;95562.50;;;25.30;45.98
9225;BME280;4647;48.072;11.616;2023-07-13T11:04:56;95557.50;;;25.51;43.85
9225;BME280;4647;48.072;11.616;2023-07-13T11:07:27;95563.88;;;24.97;44.92
9225;BME280;4647;48.072;11.616;2023-07-13T11:10:05;95558.94;;;24.64;44.75
9225;BME280;4647;48.072;11.616;2023-07-13T11:12:49;95569.56;;;24.77;45.27
9225;BME280;4647;48.072;11.616;2023-07-13T11:15:32;95570.72;;;24.54;45.88
9225;BME280;4647;48.072;11.616;2023-07-13T11:18:04;95559.63;;;24.54;46.55
9225;BME280;4647;48.072;11.616;2023-07-13T11:20:38;95558.81;;;25.66;44.60
9225;BME280;4647;48.072;11.616;2023-07-13T11:23:34;95567.44;;;25.80;42.86
9225;BME280;4647;48.072;11.616;2023-07-13T11:26:46;95558.84;;;26.17;41.85
9225;BME280;4647;48.072;11.616;2023-07-13T11:29:27;95556.81;;;26.45;42.56
9225;BME280;4647;48.072;11.616;2023-07-13T11:32:21;95553.81;;;26.04;42.01
9225;BME280;4647;48.072;11.616;2023-07-13T11:34:53;95558.50;;;24.77;43.26
9225;BME280;4647;48.072;11.616;2023-07-13T11:37:23;95549.84;;;24.21;43.55
9225;BME280;4647;48.072;11.616;2023-07-13T11:39:52;95554.28;;;24.93;43.01
9225;BME280;4647;48.072;11.616;2023-07-13T11:42:24;95546.28;;;24.58;41.78
9225;BME280;4647;48.072;11.616;2023-07-13T11:44:54;95533.78;;;23.42;37.86
9225;BME280;4647;48.072;11.616;2023-07-13T11:47:25;95529.50;;;22.54;40.52
9225;BME280;4647;48.072;11.616;2023-07-13T11:49:55;95533.47;;;22.88;39.07
9225;BME280;4647;48.072;11.616;2023-07-13T11:52:30;95529.13;;;22.81;41.04
9225;BME280;4647;48.072;11.616;2023-07-13T11:55:12;95530.28;;;22.75;42.02
9225;BME280;4647;48.072;11.616;2023-07-13T11:57:47;95533.84;;;23.21;41.86
9225;BME280;4647;48.072;11.616;2023-07-13T12:00:21;95519.09;;;22.84;41.42
9225;BME280;4647;48.072;11.616;2023-07-13T12:03:00;95524.34;;;23.02;41.66
9225;BME280;4647;48.072;11.616;2023-07-13T12:05:30;95523.56;;;23.48;40.73
9225;BME280;4647;48.072;11.616;2023-07-13T12:07:58;95521.53;;;23.74;40.72
9225;BME280;4647;48.072;11.616;2023-07-13T12:10:29;95519.88;;;24.19;39.69
9225;BME280;4647;48.072;11.616;2023-07-13T12:13:02;95522.38;;;24.60;37.39
9225;BME280;4647;48.072;11.616;2023-07-13T12:15:37;95522.19;;;24.69;36.95
9225;BME280;4647;48.072;11.616;2023-07-13T12:18:11;95512.56;;;25.30;35.90
9225;BME280;4647;48.072;11.616;2023-07-13T12:20:41;95525.97;;;25.43;35.74
9225;BME280;4647;48.072;11.616;2023-07-13T12:23:19;95523.56;;;24.96;35.07
9225;BME280;4647;48.072;11.616;2023-07-13T12:25:49;95517.91;;;25.50;34.91
9225;BME280;4647;48.072;11.616;2023-07-13T12:28:32;95517.09;;;25.22;36.77
9225;BME280;4647;48.072;11.616;2023-07-13T12:31:03;95502.53;;;26.27;35.19
9225;BME280;4647;48.072;11.616;2023-07-13T12:33:33;95498.19;;;26.49;35.95
9225;BME280;4647;48.072;11.616;2023-07-13T12:36:05;95504.84;;;25.95;36.10
9225;BME280;4647;48.072;11.616;2023-07-13T12:38:34;95504.09;;;25.89;36.60
9225;BME280;4647;48.072;11.616;2023-07-13T12:41:03;95508.59;;;26.20;35.39
9225;BME280;4647;48.072;11.616;2023-07-13T12:43:36;95504.06;;;26.12;35.51
9225;BME280;4647;48.072;11.616;2023-07-13T12:46:16;95495.50;;;26.10;36.34
9225;BME280;4647;48.072;11.616;2023-07-13T12:48:48;95482.13;;;27.00;35.36
9225;BME280;4647;48.072;11.616;2023-07-13T12:51:21;95485.75;;;27.66;33.97
9225;BME280;4647;48.072;11.616;2023-07-13T12:53:57;95488.03;;;27.62;35.01
9225;BME280;4647;48.072;11.616;2023-07-13T12:56:27;95499.06;;;25.82;36.93
9225;BME280;4647;48.072;11.616;2023-07-13T12:59:03;95496.72;;;24.65;40.45
9225;BME280;4647;48.072;11.616;2023-07-13T13:01:35;95494.28;;;24.30;40.11
9225;BME280;4647;48.072;11.616;2023-07-13T13:04:05;95483.69;;;24.83;38.69
9225;BME280;4647;48.072;11.616;2023-07-13T13:06:34;95491.03;;;24.91;39.11
9225;BME280;4647;48.072;11.616;2023-07-13T13:09:11;95471.75;;;25.47;38.71
9225;BME280;4647;48.072;11.616;2023-07-13T13:11:40;95478.09;;;25.76;38.33
9225;BME280;4647;48.072;11.616;2023-07-13T13:14:11;95483.63;;;26.15;37.28
9225;BME280;4647;48.072;11.616;2023-07-13T13:16:46;95478.88;;;25.82;37.47
9225;BME280;4647;48.072;11.616;2023-07-13T13:19:18;95475.06;;;24.64;38.63
9225;BME280;4647;48.072;11.616;2023-07-13T13:21:47;95486.81;;;24.42;38.85
9225;BME280;4647;48.072;11.616;2023-07-13T13:24:19;95489.00;;;23.95;40.34
9225;BME280;4647;48.072;11.616;2023-07-13T13:26:49;95493.47;;;24.24;40.38
9225;BME280;4647;48.072;11.616;2023-07-13T13:29:23;95480.69;;;24.32;38.32
9225;BME280;4647;48.072;11.616;2023-07-13T13:31:52;95478.84;;;24.61;39.11